Pagrindinis puslapis
METAR-TAF:

METAR-TAF

Oro uostai :

Pafosas, Kipras

platuma: 34-43N, ilguma: 032-29E, Aukštis: 11 m

Dabartinis oras

Ataskaita buvo paskelbta 39 minutes, ne 18:30 UTC
Vėjas 5 kt iš Šiaurės/Šiaurės Rytų
Temperatūra 23°C
Drėgmė 83%
Slėgis 1010 hPa
Matomumas 10 km arba daugiau
nėra debesų žemiau 1500 m ir nėra kamuolinių lietaus debesų

METAR: LCPH 151830Z 03005KT CAVOK 23/20 Q1010

Laikas: 22:09 (19:09 UTC)

Prognozė

Ataskaita buvo paskelbta 1 valandą ir 39 minutes, ne 17:30 UTC
Prognozė galioja nuo 15 metu 18 UTC su 16 metu 18 UTC
Vėjas 5 kt iš Šiaurės/Šiaurės Rytų
Matomumas 10 km arba daugiau
Mažai debesys ne aukštis 2000 ft
Tapsmas
nuo 16 metu 08 UTC su 16 metu 12 UTC
Vėjas 10 kt iš Vakarų

TAF: LCPH 151730Z 1518/1618 03005KT 9999 FEW020 BECMG 1608/1612 26010KT

Orai ataskaitas ir orų prognozės (METAR, TAF).

turimą stotys yra geltonos ir raudonos taškus žemėlapyje.

Perkelti pele per norėdami pamatyti stoties vardą.

Tada spustelėkite, norėdami matyti oro stebėjimo ir prognozės.

Norėdami pakeisti žemėlapį: spustelėkite ant žalios mygtukų su juodo kryžiaus žemyn,; žalią mygtuką su brūkšneliu, jei norite nutolinti; arba žalių rodyklių gretimoms žemėlapius.


METAR-TAF: